Time;durP1;ratioP1;P1;durP2;ratioP2;P2;SDS_P1;SDS_P2;PMS_P1;PMS_P2;Temp;Humidity;BMP_temperature;BMP_pressure;BME280_temperature;BME280_humidity;BME280_pressure;Samples;Min_cycle;Max_cycle;Signal;HPM_P1;HPM_P2
2023/11/07 00:02:08;;;;;;;0.40;0.40;;;;;;;7.63;86.09;99366.69;5075698;28;20127;-70
2023/11/07 00:04:38;;;;;;;8.13;1.23;;;;;;;7.63;86.09;99376.84;5075678;28;20047;-69
2023/11/07 00:07:08;;;;;;;0.57;0.57;;;;;;;7.62;86.02;99372.63;5075993;28;20036;-71
2023/11/07 00:09:36;;;;;;;1.40;1.30;;;;;;;7.60;86.00;99359.09;5075853;28;20114;-71
2023/11/07 00:12:06;;;;;;;0.68;0.68;;;;;;;7.64;85.98;99376.03;5075549;28;20044;-71
2023/11/07 00:14:36;;;;;;;0.57;0.57;;;;;;;7.62;86.07;99382.78;5075449;28;20045;-68
2023/11/07 00:17:05;;;;;;;0.70;0.70;;;;;;;7.58;86.13;99378.56;5075390;28;20051;-70
2023/11/07 00:19:34;;;;;;;0.60;0.60;;;;;;;7.65;85.59;99382.81;5075620;28;20386;-69
2023/11/07 00:22:03;;;;;;;1.07;0.90;;;;;;;7.60;85.42;99379.41;5074867;28;20075;-71
2023/11/07 00:24:32;;;;;;;0.47;0.47;;;;;;;7.64;86.11;99381.13;5075308;28;20047;-71
2023/11/07 00:27:01;;;;;;;1.70;0.83;;;;;;;7.65;85.58;99387.91;5075295;28;20053;-69
2023/11/07 00:29:29;;;;;;;0.93;0.90;;;;;;;7.49;85.76;99375.06;5075075;28;20045;-71
2023/11/07 00:32:00;;;;;;;6.32;1.17;;;;;;;7.48;85.73;99384.41;5075410;28;20558;-70
2023/11/07 00:34:29;;;;;;;0.93;0.93;;;;;;;7.39;85.30;99374.16;5075405;28;20092;-69
2023/11/07 00:36:58;;;;;;;1.20;1.10;;;;;;;7.42;85.34;99389.41;5075020;28;20055;-69
2023/11/07 00:39:27;;;;;;;0.50;0.50;;;;;;;7.44;85.71;99387.75;5075367;28;20040;-69
2023/11/07 00:41:56;;;;;;;0.57;0.57;;;;;;;7.34;85.82;99388.53;5075277;28;20127;-69
2023/11/07 00:44:26;;;;;;;0.80;0.80;;;;;;;7.25;85.00;99381.69;5073958;28;20083;-69
2023/11/07 00:46:55;;;;;;;1.30;0.70;;;;;;;7.34;85.25;99393.63;5074867;28;20053;-71
2023/11/07 00:49:25;;;;;;;0.75;0.73;;;;;;;7.29;85.04;99402.88;5073839;28;20381;-70
2023/11/07 00:51:54;;;;;;;0.73;0.68;;;;;;;7.26;84.34;99397.78;5073590;28;20052;-70
2023/11/07 00:54:23;;;;;;;1.10;1.00;;;;;;;7.35;84.87;99402.91;5073721;28;20486;-71
2023/11/07 00:56:52;;;;;;;0.43;0.43;;;;;;;7.33;84.79;99394.44;5073662;28;20037;-71
2023/11/07 00:59:21;;;;;;;4.90;1.42;;;;;;;7.36;85.56;99399.53;5074911;28;20049;-71
2023/11/07 01:01:51;;;;;;;0.95;0.65;;;;;;;7.28;85.44;99401.16;5074555;28;20055;-70
2023/11/07 01:04:19;;;;;;;1.50;1.40;;;;;;;7.35;85.35;99400.38;5074480;28;20386;-70
2023/11/07 01:06:50;;;;;;;0.50;0.50;;;;;;;7.32;85.25;99397.81;5074523;28;20126;-70
2023/11/07 01:09:19;;;;;;;0.55;0.55;;;;;;;7.41;85.42;99405.50;5074733;28;20044;-70
2023/11/07 01:11:48;;;;;;;1.23;1.13;;;;;;;7.38;85.80;99408.03;5074655;28;20060;-69
2023/11/07 01:14:17;;;;;;;0.52;0.52;;;;;;;7.46;85.09;99419.09;5074179;28;20062;-70
2023/11/07 01:16:45;;;;;;;0.52;0.52;;;;;;;7.46;85.75;99416.56;5073106;28;20112;-70
2023/11/07 01:19:15;;;;;;;0.77;0.77;;;;;;;7.45;85.12;99430.06;5074294;28;20562;-71
2023/11/07 01:21:44;;;;;;;0.80;0.80;;;;;;;7.51;85.84;99440.25;5072987;28;20045;-71
2023/11/07 01:24:14;;;;;;;0.95;0.88;;;;;;;7.53;85.95;99443.69;5074343;28;20515;-69
2023/11/07 01:26:43;;;;;;;0.40;0.40;;;;;;;7.51;85.54;99450.41;5074037;28;20056;-70
2023/11/07 01:29:13;;;;;;;1.83;1.57;;;;;;;7.52;86.04;99446.19;5074026;28;20044;-69
2023/11/07 01:31:42;;;;;;;0.80;0.80;;;;;;;7.47;85.92;99452.94;5074068;28;20044;-70
2023/11/07 01:34:11;;;;;;;0.50;0.50;;;;;;;7.43;85.59;99447.84;5073962;28;20578;-70
2023/11/07 01:36:40;;;;;;;1.40;1.30;;;;;;;7.53;86.18;99448.78;5073788;28;20494;-70
2023/11/07 01:39:09;;;;;;;1.25;1.05;;;;;;;7.61;86.55;99456.41;5074214;28;20094;-71
2023/11/07 01:41:40;;;;;;;;;;;;;;;7.75;86.20;99457.38;5073384;28;20040;-69
2023/11/07 01:44:10;;;;;;;0.32;0.32;;;;;;;7.76;87.32;99454.84;5072855;28;20362;-71
2023/11/07 01:46:39;;;;;;;0.40;0.40;;;;;;;7.73;86.67;99442.13;5073823;28;20098;-69
2023/11/07 01:49:08;;;;;;;0.55;0.55;;;;;;;7.85;86.94;99459.97;5072456;28;20036;-68
2023/11/07 01:51:38;;;;;;;4.47;0.85;;;;;;;7.88;86.59;99449.84;5072569;28;20048;-69
2023/11/07 01:54:08;;;;;;;3.00;1.27;;;;;;;7.91;86.33;99451.56;5073697;28;20417;-70
2023/11/07 01:56:37;;;;;;;2.80;0.80;;;;;;;7.95;87.42;99454.13;5073607;28;20071;-69
2023/11/07 01:59:07;;;;;;;1.17;1.08;;;;;;;7.94;87.79;99452.41;5073819;28;20052;-70
2023/11/07 02:01:41;;;;;;;0.47;0.47;;;;;;;7.94;86.97;99454.94;5072432;28;20049;-69
2023/11/07 02:04:10;;;;;;;2.50;1.05;;;;;;;7.83;87.52;99443.88;5073540;28;20064;-69
2023/11/07 02:06:39;;;;;;;1.55;1.45;;;;;;;7.85;87.13;99452.34;5073759;28;20055;-71
2023/11/07 02:09:08;;;;;;;0.40;0.40;;;;;;;7.76;87.75;99442.16;5073704;28;20548;-69
2023/11/07 02:11:37;;;;;;;1.70;1.60;;;;;;;7.92;87.54;99459.19;5073458;28;20094;-71
2023/11/07 02:14:09;;;;;;;1.33;1.23;;;;;;;7.97;87.96;99454.97;5073430;28;20486;-69
2023/11/07 02:16:38;;;;;;;1.17;1.08;;;;;;;8.00;88.17;99451.59;5072163;28;20277;-71
2023/11/07 02:19:06;;;;;;;1.08;1.05;;;;;;;8.03;87.95;99447.41;5073356;28;20040;-71
2023/11/07 02:21:36;;;;;;;0.75;0.70;;;;;;;8.18;88.34;99445.78;5073695;28;20038;-68
2023/11/07 02:24:10;;;;;;;0.75;0.75;;;;;;;8.18;87.89;99446.63;5072246;28;20057;-69
2023/11/07 02:26:39;;;;;;;1.00;0.95;;;;;;;8.21;88.09;99446.63;5055766;28;20402;-70
2023/11/07 02:29:08;;;;;;;0.73;0.73;;;;;;;8.25;88.64;99447.50;5072089;28;20075;-69
2023/11/07 02:31:37;;;;;;;0.30;0.30;;;;;;;8.32;88.38;99450.13;5073325;28;20508;-69
2023/11/07 02:34:06;;;;;;;0.40;0.40;;;;;;;8.32;88.70;99449.28;5072519;28;20634;-71
2023/11/07 02:36:39;;;;;;;0.93;0.90;;;;;;;8.22;88.28;99443.25;5072137;28;20049;-69
2023/11/07 02:39:12;;;;;;;0.63;0.63;;;;;;;8.11;88.30;99429.63;5071873;28;20136;-71
2023/11/07 02:41:41;;;;;;;1.10;0.95;;;;;;;8.31;87.71;99462.81;5073570;28;20045;-69
2023/11/07 02:44:11;;;;;;;0.32;0.32;;;;;;;8.27;88.71;99450.94;5072675;28;20456;-68
2023/11/07 02:46:40;;;;;;;1.03;0.90;;;;;;;8.36;88.18;99458.59;5076310;28;20043;-69
2023/11/07 02:49:10;;;;;;;1.45;1.23;;;;;;;8.43;88.27;99457.78;5077298;28;20082;-71
2023/11/07 02:51:39;;;;;;;1.15;1.10;;;;;;;8.39;88.24;99444.22;5077155;28;20410;-70
2023/11/07 02:54:10;;;;;;;0.77;0.77;;;;;;;8.53;88.02;99462.06;5077035;28;20490;-70
2023/11/07 02:56:39;;;;;;;1.95;1.40;;;;;;;8.52;87.94;99460.34;5077209;28;20510;-72
2023/11/07 02:59:07;;;;;;;2.97;1.13;;;;;;;8.52;88.15;99452.72;5076788;28;20464;-70
2023/11/07 03:01:36;;;;;;;2.97;1.17;;;;;;;8.56;87.95;99459.53;5077139;28;20367;-69
2023/11/07 03:04:05;;;;;;;0.60;0.60;;;;;;;8.59;87.40;99454.47;5076801;28;20297;-70
2023/11/07 03:06:34;;;;;;;;;;;;;;;8.64;87.72;99457.84;5077488;28;20087;-69
2023/11/07 03:09:04;;;;;;;0.40;0.40;;;;;;;8.66;87.25;99451.09;5075739;28;19981;-69
2023/11/07 03:11:34;;;;;;;0.55;0.55;;;;;;;8.65;88.11;99454.47;5076962;28;20044;-70
2023/11/07 03:14:03;;;;;;;0.45;0.45;;;;;;;8.64;87.75;99458.72;5075730;28;20482;-70
2023/11/07 03:16:33;;;;;;;1.13;1.00;;;;;;;8.75;88.22;99471.47;5075490;28;20098;-69
2023/11/07 03:19:07;;;;;;;0.50;0.50;;;;;;;8.82;87.86;99462.16;5076625;28;20135;-69
2023/11/07 03:21:37;;;;;;;0.63;0.63;;;;;;;8.83;87.64;99464.69;5076646;28;20134;-70
2023/11/07 03:24:08;;;;;;;1.23;1.02;;;;;;;8.79;87.95;99465.53;5076703;28;20040;-69
2023/11/07 03:26:39;;;;;;;0.95;0.90;;;;;;;8.84;88.19;99475.72;5076393;28;20052;-70
2023/11/07 03:29:08;;;;;;;0.98;0.93;;;;;;;8.84;88.17;99481.69;5076746;28;20048;-69
2023/11/07 03:31:37;;;;;;;0.50;0.50;;;;;;;8.77;88.02;99474.88;5075203;28;20124;-70
2023/11/07 03:34:06;;;;;;;0.47;0.47;;;;;;;8.73;88.21;99478.25;5076483;28;20040;-69
2023/11/07 03:36:34;;;;;;;0.30;0.30;;;;;;;8.57;88.71;99446.81;5076247;28;20048;-69
2023/11/07 03:39:04;;;;;;;0.40;0.40;;;;;;;8.71;89.00;99469.75;5076422;28;20394;-70
2023/11/07 03:41:33;;;;;;;0.65;0.65;;;;;;;8.72;88.14;99471.47;5076173;28;20051;-69
2023/11/07 03:44:04;;;;;;;2.42;1.48;;;;;;;8.72;88.62;99479.09;5075245;28;20082;-68
2023/11/07 03:46:33;;;;;;;0.80;0.80;;;;;;;8.65;88.71;99477.38;5076366;28;20052;-70
2023/11/07 03:49:02;;;;;;;3.72;1.25;;;;;;;8.59;88.19;99480.72;5074775;28;20043;-69
2023/11/07 03:51:31;;;;;;;2.92;1.42;;;;;;;8.56;88.87;99479.88;5075760;28;20067;-69
2023/11/07 03:54:00;;;;;;;0.40;0.40;;;;;;;8.61;88.29;99480.75;5075999;28;20044;-68
2023/11/07 03:56:28;;;;;;;1.45;1.33;;;;;;;8.59;88.80;99475.66;5075014;28;20095;-69
2023/11/07 03:58:57;;;;;;;0.40;0.40;;;;;;;8.60;89.05;99479.03;5075720;28;20044;-68
2023/11/07 04:01:36;;;;;;;0.50;0.50;;;;;;;8.62;88.67;99479.91;5076139;28;20040;-70
2023/11/07 04:04:06;;;;;;;0.65;0.65;;;;;;;8.64;89.13;99481.59;5075761;28;20135;-68
2023/11/07 04:06:35;;;;;;;0.60;0.60;;;;;;;8.65;88.43;99480.78;5075662;28;20052;-68
2023/11/07 04:09:04;;;;;;;1.85;1.73;;;;;;;8.64;88.62;99496.00;5075749;28;20082;-68
2023/11/07 04:11:33;;;;;;;1.40;0.70;;;;;;;8.54;88.99;99486.66;5075585;28;20052;-68
2023/11/07 04:14:03;;;;;;;1.38;1.27;;;;;;;8.56;89.15;99501.09;5075451;28;20055;-67
2023/11/07 04:16:32;;;;;;;1.20;1.10;;;;;;;8.54;88.41;99507.84;5075524;28;20048;-68
2023/11/07 04:19:02;;;;;;;1.07;1.00;;;;;;;8.52;88.11;99495.97;5075696;28;20390;-70
2023/11/07 04:21:33;;;;;;;1.00;1.00;;;;;;;8.46;87.97;99493.41;5075677;28;20072;-69
2023/11/07 04:24:02;;;;;;;2.42;1.80;;;;;;;8.44;88.64;99497.63;5075902;28;20041;-69
2023/11/07 04:26:31;;;;;;;6.83;4.23;;;;;;;8.36;88.66;99501.81;5075518;28;20517;-69
2023/11/07 04:29:00;;;;;;;1.35;1.25;;;;;;;8.33;89.03;99506.88;5075442;28;20045;-69
2023/11/07 04:31:28;;;;;;;0.60;0.60;;;;;;;8.20;88.16;99494.94;5075204;28;20044;-70
2023/11/07 04:33:57;;;;;;;0.93;0.90;;;;;;;8.25;88.79;99498.34;5075120;28;20045;-69
2023/11/07 04:36:28;;;;;;;0.75;0.75;;;;;;;8.25;88.43;99504.28;5075401;28;20036;-69
2023/11/07 04:38:57;;;;;;;1.17;1.10;;;;;;;8.22;88.46;99503.41;5075070;28;20048;-69
2023/11/07 04:41:26;;;;;;;0.88;0.88;;;;;;;8.17;87.75;99505.06;5075280;28;20040;-70
2023/11/07 04:43:54;;;;;;;2.28;1.83;;;;;;;8.06;88.50;99493.16;5075120;28;20467;-69
2023/11/07 04:46:23;;;;;;;1.25;1.13;;;;;;;8.05;88.38;99501.63;5074890;28;20125;-70
2023/11/07 04:48:54;;;;;;;2.20;1.43;;;;;;;8.01;88.44;99504.97;5074767;28;20498;-70
2023/11/07 04:51:23;;;;;;;3.30;2.53;;;;;;;7.98;88.58;99504.97;5074594;28;20093;-70
2023/11/07 04:53:54;;;;;;;1.40;1.30;;;;;;;7.91;87.51;99508.31;5074975;28;20055;-70
2023/11/07 04:56:23;;;;;;;2.25;1.80;;;;;;;7.89;87.80;99509.97;5074762;28;20052;-69
2023/11/07 04:58:52;;;;;;;2.47;2.00;;;;;;;7.84;87.87;99510.78;5074550;28;20068;-71
2023/11/07 05:01:27;;;;;;;6.43;2.00;;;;;;;7.70;88.33;99502.22;5074603;28;20049;-68
2023/11/07 05:03:55;;;;;;;1.23;1.13;;;;;;;7.75;88.39;99511.56;5074461;28;20043;-71
2023/11/07 05:06:25;;;;;;;2.67;2.15;;;;;;;7.80;87.21;99504.81;5074770;28;20445;-71
2023/11/07 05:08:55;;;;;;;3.00;2.55;;;;;;;7.87;87.95;99506.56;5074143;28;20058;-71
2023/11/07 05:11:24;;;;;;;4.30;2.95;;;;;;;7.88;87.79;99503.19;5074937;28;20132;-71
2023/11/07 05:13:53;;;;;;;4.55;3.30;;;;;;;7.82;87.74;99510.75;5074297;28;20057;-69
2023/11/07 05:16:22;;;;;;;2.87;2.57;;;;;;;7.78;88.72;99516.66;5074333;28;20040;-70
2023/11/07 05:18:51;;;;;;;4.55;3.35;;;;;;;7.76;87.42;99523.44;5074160;28;20052;-71
2023/11/07 05:21:20;;;;;;;7.72;5.35;;;;;;;7.73;88.30;99523.41;5074605;28;20086;-71
2023/11/07 05:23:49;;;;;;;2.43;1.77;;;;;;;7.75;88.79;99524.25;5074419;28;20056;-70
2023/11/07 05:26:19;;;;;;;1.20;1.10;;;;;;;7.73;87.50;99525.94;5074057;28;20040;-71
2023/11/07 05:28:48;;;;;;;2.70;2.28;;;;;;;7.67;88.02;99525.91;5073959;28;20324;-70
2023/11/07 05:31:17;;;;;;;0.95;0.80;;;;;;;7.59;87.93;99524.97;5074273;28;20070;-70
2023/11/07 05:33:47;;;;;;;2.08;1.80;;;;;;;7.54;88.20;99521.53;5073921;28;20037;-69
2023/11/07 05:36:16;;;;;;;2.38;2.17;;;;;;;7.48;87.21;99523.19;5073933;28;20040;-70
2023/11/07 05:38:45;;;;;;;2.38;2.17;;;;;;;7.44;87.25;99525.69;5073846;28;20422;-70
2023/11/07 05:41:16;;;;;;;0.93;0.88;;;;;;;7.47;87.90;99524.88;5089545;28;20044;-72
2023/11/07 05:43:47;;;;;;;4.78;2.67;;;;;;;7.41;87.40;99519.75;5074447;28;20093;-69
2023/11/07 05:46:17;;;;;;;1.98;1.80;;;;;;;7.49;87.29;99528.28;5073985;28;20486;-73
2023/11/07 05:48:47;;;;;;;1.60;1.48;;;;;;;7.44;87.55;99529.91;5073667;28;20071;-71
2023/11/07 05:51:16;;;;;;;1.83;1.73;;;;;;;7.33;87.52;99536.59;5073845;28;20052;-71
2023/11/07 05:53:45;;;;;;;1.60;1.50;;;;;;;7.26;87.47;99530.59;5073672;28;20041;-69
2023/11/07 05:56:15;;;;;;;2.23;2.00;;;;;;;7.27;87.17;99537.38;5073676;28;20299;-72
2023/11/07 05:58:44;;;;;;;3.17;2.13;;;;;;;7.23;87.42;99522.09;5073591;28;20158;-71
2023/11/07 06:01:18;;;;;;;1.30;1.20;;;;;;;7.37;86.99;99543.38;5073519;28;20045;-71
2023/11/07 06:03:50;;;;;;;2.15;1.77;;;;;;;7.26;86.91;99550.91;5073634;28;20044;-70
2023/11/07 06:06:19;;;;;;;2.22;1.55;;;;;;;7.22;87.56;99543.25;5073632;28;20090;-72
2023/11/07 06:08:48;;;;;;;2.30;1.75;;;;;;;7.37;87.75;99554.41;5072468;28;20468;-72
2023/11/07 06:11:17;;;;;;;2.00;1.85;;;;;;;7.41;87.33;99555.28;5073664;28;20047;-70
2023/11/07 06:13:46;;;;;;;1.23;1.13;;;;;;;7.48;87.45;99567.22;5073832;28;20060;-71
2023/11/07 06:16:14;;;;;;;2.63;1.85;;;;;;;7.48;87.12;99564.66;5073694;28;20047;-70
2023/11/07 06:18:45;;;;;;;1.85;1.75;;;;;;;7.51;87.57;99564.69;5073305;28;20509;-72
2023/11/07 06:21:14;;;;;;;1.48;0.80;;;;;;;7.58;87.97;99563.94;5073158;28;20052;-72
2023/11/07 06:23:43;;;;;;;1.45;1.00;;;;;;;7.64;87.40;99563.97;5073693;28;20040;-71
2023/11/07 06:26:12;;;;;;;1.70;1.50;;;;;;;7.75;87.70;99572.53;5073293;28;20124;-72
2023/11/07 06:28:41;;;;;;;0.83;0.80;;;;;;;7.81;87.65;99577.66;5073216;28;20040;-71
2023/11/07 06:31:09;;;;;;;1.45;1.33;;;;;;;7.98;88.04;99571.03;5073319;28;20033;-72
2023/11/07 06:33:38;;;;;;;0.50;0.50;;;;;;;8.20;88.69;99582.22;5073287;28;20494;-71
2023/11/07 06:36:09;;;;;;;0.77;0.77;;;;;;;8.25;88.17;99590.72;5073515;28;20398;-71
2023/11/07 06:38:39;;;;;;;1.25;1.15;;;;;;;8.28;87.98;99589.94;5073146;28;20072;-70
2023/11/07 06:41:08;;;;;;;0.65;0.65;;;;;;;8.45;88.40;99604.44;5072764;28;20539;-72
2023/11/07 06:43:37;;;;;;;0.93;0.85;;;;;;;8.57;87.76;99604.53;5073417;28;20386;-70
2023/11/07 06:46:06;;;;;;;3.20;1.43;;;;;;;8.58;88.20;99605.38;5073116;28;20518;-72
2023/11/07 06:48:35;;;;;;;1.20;1.10;;;;;;;8.77;88.64;99609.72;5073516;28;20044;-70
2023/11/07 06:51:04;;;;;;;0.93;0.83;;;;;;;8.84;88.20;99598.72;5073213;28;20133;-70
2023/11/07 06:53:34;;;;;;;1.92;1.10;;;;;;;8.95;87.66;99601.34;5073052;28;20365;-71
2023/11/07 06:56:02;;;;;;;0.93;0.88;;;;;;;9.09;87.51;99604.78;5073050;28;20037;-70
2023/11/07 06:58:31;;;;;;;2.20;1.60;;;;;;;9.21;87.44;99595.47;5071856;28;20136;-72
2023/11/07 07:01:00;;;;;;;1.50;1.27;;;;;;;9.45;88.13;99610.00;5069447;28;20309;-69
2023/11/07 07:03:29;;;;;;;1.27;1.17;;;;;;;9.57;87.63;99609.19;5063767;28;20041;-69
2023/11/07 07:05:58;;;;;;;0.90;0.90;;;;;;;9.66;87.51;99604.09;5053529;28;20286;-69
2023/11/07 07:08:27;;;;;;;1.45;1.35;;;;;;;9.70;87.00;99606.63;5061487;28;20094;-73
2023/11/07 07:10:58;;;;;;;1.20;1.15;;;;;;;9.69;86.89;99604.09;5072912;28;20040;-70
2023/11/07 07:13:27;;;;;;;1.02;0.90;;;;;;;9.52;86.45;99565.00;5073297;28;20086;-70
2023/11/07 07:15:56;;;;;;;4.80;3.00;;;;;;;9.94;86.50;99616.88;5072871;28;20044;-73
2023/11/07 07:18:27;;;;;;;4.37;3.23;;;;;;;10.01;86.29;99627.91;5063703;28;20495;-73
2023/11/07 07:20:57;;;;;;;2.05;1.88;;;;;;;10.06;86.44;99623.66;5052824;28;20490;-73
2023/11/07 07:23:32;;;;;;;2.35;1.98;;;;;;;9.61;85.78;99565.00;5052796;28;20041;-70
2023/11/07 07:26:08;;;;;;;3.10;1.48;;;;;;;9.71;86.19;99618.56;5052693;28;20099;-71
2023/11/07 07:28:38;;;;;;;3.22;2.15;;;;;;;9.61;86.08;99631.25;5053004;28;20052;-69
2023/11/07 07:31:07;;;;;;;3.45;3.00;;;;;;;9.52;85.99;99631.25;5053904;28;20053;-72
2023/11/07 07:33:36;;;;;;;13.52;4.20;;;;;;;9.49;86.32;99647.38;5056495;28;20372;-69
2023/11/07 07:36:11;;;;;;;1.98;1.77;;;;;;;9.52;86.10;99646.53;5056200;28;20084;-69
2023/11/07 07:38:40;;;;;;;2.60;2.17;;;;;;;9.53;86.45;99648.22;5056188;28;20495;-69
2023/11/07 07:41:12;;;;;;;2.45;1.58;;;;;;;9.41;86.35;99643.94;5069362;28;20371;-69
2023/11/07 07:43:42;;;;;;;2.53;2.33;;;;;;;9.31;86.75;99648.16;5072744;28;20040;-69
2023/11/07 07:46:12;;;;;;;2.90;2.63;;;;;;;9.30;87.15;99641.38;5056375;28;20053;-69
2023/11/07 07:48:42;;;;;;;1.30;1.20;;;;;;;9.24;86.63;99641.31;5056182;28;20045;-73
2023/11/07 07:51:14;;;;;;;1.27;0.98;;;;;;;9.16;87.13;99650.66;5055535;28;20505;-68
2023/11/07 07:53:44;;;;;;;2.13;1.35;;;;;;;9.17;86.90;99657.44;5055858;28;20216;-73
2023/11/07 07:56:15;;;;;;;0.80;0.80;;;;;;;8.88;87.12;99590.25;5056454;28;20040;-73
2023/11/07 07:58:44;;;;;;;1.52;1.42;;;;;;;9.27;87.53;99651.53;5063854;28;20041;-71
2023/11/07 08:01:18;;;;;;;3.40;2.93;;;;;;;9.39;87.64;99661.75;5056667;28;20041;-71
2023/11/07 08:03:50;;;;;;;1.20;1.08;;;;;;;9.41;86.89;99659.22;5055186;28;20298;-71
2023/11/07 08:06:19;;;;;;;1.15;1.05;;;;;;;9.41;87.10;99660.06;5056035;28;20106;-70
2023/11/07 08:08:48;;;;;;;0.67;0.67;;;;;;;9.49;87.29;99656.69;5055777;28;20049;-71
2023/11/07 08:11:19;;;;;;;3.17;2.30;;;;;;;9.49;87.46;99657.56;5055808;28;20049;-70
2023/11/07 08:13:47;;;;;;;1.35;1.25;;;;;;;9.56;87.69;99661.81;5055738;28;20094;-70
2023/11/07 08:16:16;;;;;;;2.38;2.17;;;;;;;9.42;87.49;99635.47;5056378;28;20135;-70
2023/11/07 08:18:46;;;;;;;2.60;1.55;;;;;;;9.59;88.10;99653.34;5055500;28;20067;-72
2023/11/07 08:21:15;;;;;;;2.08;1.08;;;;;;;9.71;87.94;99655.91;5055545;28;20136;-69
2023/11/07 08:23:44;;;;;;;0.52;0.52;;;;;;;9.81;87.66;99650.00;5055539;28;20087;-70
2023/11/07 08:26:13;;;;;;;2.20;1.47;;;;;;;9.99;88.19;99644.91;5055176;28;20068;-71
2023/11/07 08:28:43;;;;;;;1.42;0.98;;;;;;;9.91;88.08;99606.66;5055128;28;20365;-72
2023/11/07 08:31:12;;;;;;;0.98;0.93;;;;;;;10.30;87.80;99636.44;5055426;28;20053;-70
2023/11/07 08:33:43;;;;;;;1.90;1.73;;;;;;;10.03;87.17;99580.31;5055373;28;20060;-70
2023/11/07 08:36:13;;;;;;;0.70;0.70;;;;;;;10.29;87.28;99586.31;5055423;28;20040;-71
2023/11/07 08:38:42;;;;;;;;;;;;;;;10.69;87.06;99646.63;5069821;28;20055;-71
2023/11/07 08:41:11;;;;;;;0.43;0.43;;;;;;;10.70;86.67;99643.19;5054881;28;19920;-70
2023/11/07 08:43:40;;;;;;;0.73;0.73;;;;;;;10.70;86.76;99622.78;5054342;28;20072;-71
2023/11/07 08:46:10;;;;;;;0.80;0.60;;;;;;;10.85;86.15;99656.78;5054446;28;20037;-70
2023/11/07 08:48:44;;;;;;;0.68;0.63;;;;;;;11.03;86.44;99656.75;5054240;28;20045;-70
2023/11/07 08:51:14;;;;;;;0.50;0.50;;;;;;;11.18;86.13;99659.25;5054660;28;20406;-70
2023/11/07 08:53:43;;;;;;;;;;;;;;;11.29;85.98;99671.13;5055544;28;20073;-71
2023/11/07 08:56:13;;;;;;;0.80;0.80;;;;;;;11.37;85.94;99669.38;5059610;28;19920;-71
2023/11/07 08:58:43;;;;;;;1.38;1.27;;;;;;;11.48;85.55;99661.69;5074891;28;20453;-72
2023/11/07 09:01:14;;;;;;;0.97;0.83;;;;;;;11.60;85.55;99671.84;5064657;28;20564;-72
2023/11/07 09:03:45;;;;;;;1.58;1.48;;;;;;;11.48;84.88;99671.91;5073081;28;20052;-69
2023/11/07 09:06:14;;;;;;;2.40;2.20;;;;;;;11.42;84.73;99665.09;5064090;28;20061;-70
2023/11/07 09:08:43;;;;;;;0.75;0.75;;;;;;;11.29;84.35;99686.47;5054301;28;20041;-70
2023/11/07 09:11:12;;;;;;;0.70;0.70;;;;;;;11.14;84.32;99680.53;5054314;28;20095;-70
2023/11/07 09:13:41;;;;;;;2.80;1.70;;;;;;;11.07;84.48;99686.53;5073102;28;20060;-70
2023/11/07 09:16:10;;;;;;;1.75;1.25;;;;;;;11.05;84.75;99680.56;5074554;28;20288;-69
2023/11/07 09:18:41;;;;;;;1.23;0.63;;;;;;;10.99;85.06;99675.50;5074564;28;20033;-70
2023/11/07 09:21:10;;;;;;;0.70;0.70;;;;;;;10.91;85.23;99656.78;5074475;28;20055;-70
2023/11/07 09:23:40;;;;;;;0.60;0.60;;;;;;;11.08;85.25;99681.44;5056691;28;20095;-71
2023/11/07 09:26:09;;;;;;;0.98;0.95;;;;;;;11.11;84.99;99681.41;5054651;28;20498;-70
2023/11/07 09:28:38;;;;;;;7.10;1.67;;;;;;;11.13;85.44;99671.19;5067739;28;20041;-71
2023/11/07 09:31:07;;;;;;;0.70;0.70;;;;;;;11.18;85.41;99677.16;5055533;28;20037;-71
2023/11/07 09:33:36;;;;;;;1.25;1.15;;;;;;;11.25;85.42;99671.97;5054006;28;20067;-71
2023/11/07 09:36:09;;;;;;;3.38;1.05;;;;;;;11.48;85.46;99668.50;5059241;28;20094;-72
2023/11/07 09:38:38;;;;;;;0.80;0.80;;;;;;;11.66;85.12;99666.69;5073887;28;20052;-70
2023/11/07 09:41:20;;;;;;;3.10;2.17;;;;;;;11.80;84.90;99672.63;5063458;28;20406;-71
2023/11/07 09:43:51;;;;;;;0.47;0.47;;;;;;;11.81;84.98;99674.31;5054380;28;20434;-70
2023/11/07 09:46:22;;;;;;;0.52;0.52;;;;;;;11.75;84.82;99678.63;5058841;28;20048;-73
2023/11/07 09:48:53;;;;;;;4.93;2.33;;;;;;;11.78;85.08;99670.94;5073595;28;20131;-72
2023/11/07 09:51:27;;;;;;;1.17;1.10;;;;;;;11.90;85.22;99671.69;5062889;28;20056;-70
2023/11/07 09:53:59;;;;;;;1.15;1.02;;;;;;;12.05;85.16;99661.38;5066152;28;20040;-71
2023/11/07 09:56:31;;;;;;;0.77;0.77;;;;;;;12.34;84.90;99660.28;5072990;28;20102;-71
2023/11/07 10:06:29;;;;;;;0.55;0.55;;;;;;;12.46;83.71;99665.31;4938078;28;20050;-72
2023/11/07 10:08:59;;;;;;;1.33;1.23;;;;;;;12.84;83.93;99654.72;4971874;28;20136;-70
2023/11/07 10:11:28;;;;;;;2.63;1.77;;;;;;;13.17;83.01;99654.38;4971351;28;20082;-70
2023/11/07 10:14:02;;;;;;;1.43;1.33;;;;;;;13.40;82.29;99655.81;4970290;28;20130;-74
2023/11/07 10:16:40;;;;;;;0.82;0.82;;;;;;;13.50;81.16;99647.97;4971643;28;20050;-74
2023/11/07 10:19:16;;;;;;;0.95;0.90;;;;;;;13.27;80.67;99590.16;4970696;28;20073;-72
2023/11/07 10:21:46;;;;;;;3.03;1.77;;;;;;;13.57;80.79;99581.22;4937419;29;20054;-72
2023/11/07 10:24:15;;;;;;;0.88;0.77;;;;;;;13.95;79.49;99632.78;4953426;29;20102;-71
2023/11/07 10:26:53;;;;;;;3.92;1.63;;;;;;;14.24;79.75;99634.91;4985503;28;20157;-72
2023/11/07 10:29:30;;;;;;;0.85;0.85;;;;;;;14.52;78.92;99631.03;5029256;28;20057;-72
2023/11/07 10:32:09;;;;;;;2.50;1.33;;;;;;;14.65;78.10;99623.97;5031557;28;20053;-71
2023/11/07 10:34:39;;;;;;;1.75;1.65;;;;;;;14.78;77.52;99622.84;5073489;28;20432;-73
2023/11/07 10:37:10;;;;;;;0.80;0.80;;;;;;;14.66;76.69;99618.78;5073311;28;20051;-71
2023/11/07 10:39:39;;;;;;;2.78;2.28;;;;;;;14.67;76.20;99619.63;5055958;28;20507;-73
2023/11/07 10:42:17;;;;;;;2.80;1.60;;;;;;;14.75;76.24;99612.66;5053410;28;20443;-71
2023/11/07 10:44:48;;;;;;;2.55;1.90;;;;;;;15.06;76.40;99607.75;5058224;28;20049;-72
2023/11/07 10:47:19;;;;;;;1.65;1.17;;;;;;;15.17;75.30;99587.81;5067827;28;20502;-71
2023/11/07 10:49:52;;;;;;;0.77;0.70;;;;;;;15.33;75.09;99607.19;5073058;28;20148;-72
2023/11/07 10:52:23;;;;;;;0.95;0.93;;;;;;;15.08;74.65;99560.56;5071938;28;20124;-71
2023/11/07 10:54:52;;;;;;;2.10;1.33;;;;;;;15.27;74.81;99602.16;5073001;28;20048;-72
2023/11/07 10:57:26;;;;;;;1.58;1.48;;;;;;;15.49;74.52;99588.00;5071583;28;20045;-72
2023/11/07 11:00:05;;;;;;;1.30;1.17;;;;;;;15.34;73.85;99588.28;5072122;28;20052;-72
2023/11/07 11:02:35;;;;;;;1.90;1.70;;;;;;;15.49;73.93;99580.28;5072273;28;20064;-73
2023/11/07 11:05:06;;;;;;;1.10;1.05;;;;;;;15.76;73.30;99592.53;5073146;28;20550;-73
2023/11/07 11:07:38;;;;;;;1.50;1.40;;;;;;;15.92;72.86;99593.88;5075750;28;20478;-72
2023/11/07 11:10:10;;;;;;;0.80;0.80;;;;;;;15.93;72.11;99590.38;5076998;28;20040;-72
2023/11/07 11:12:42;;;;;;;1.33;1.23;;;;;;;15.97;71.86;99592.03;5076675;28;20048;-73
2023/11/07 11:15:13;;;;;;;2.25;1.17;;;;;;;15.83;71.57;99591.50;5075066;28;20530;-72
2023/11/07 11:17:51;;;;;;;6.90;0.75;;;;;;;15.68;72.16;99591.84;5075203;28;20052;-71
2023/11/07 11:20:27;;;;;;;0.70;0.70;;;;;;;15.92;72.56;99591.28;5058133;28;20045;-71
2023/11/07 11:23:03;;;;;;;1.67;1.42;;;;;;;16.15;72.05;99584.75;5066132;28;20067;-73
2023/11/07 11:25:45;;;;;;;0.73;0.73;;;;;;;16.11;71.00;99594.25;5076365;28;20055;-72
2023/11/07 11:28:14;;;;;;;2.20;1.17;;;;;;;16.18;70.82;99594.94;5076477;28;20145;-72
2023/11/07 11:30:54;;;;;;;3.03;1.57;;;;;;;16.42;69.89;99586.59;5075481;28;20037;-72
2023/11/07 11:33:27;;;;;;;1.50;1.40;;;;;;;16.45;68.77;99576.22;5075765;28;20312;-72
2023/11/07 11:35:57;;;;;;;0.82;0.82;;;;;;;16.30;68.69;99582.63;5076284;28;20135;-72
2023/11/07 11:38:42;;;;;;;2.20;0.80;;;;;;;16.18;69.01;99564.03;5075109;28;20044;-71
2023/11/07 11:41:10;;;;;;;1.13;0.80;;;;;;;16.00;68.89;99571.34;5076215;28;20040;-72
2023/11/07 11:44:09;;;;;;;0.63;0.63;;;;;;;15.32;70.09;99525.78;5076085;28;20566;-71
2023/11/07 11:46:39;;;;;;;0.73;0.73;;;;;;;15.46;71.02;99569.22;5073988;28;20054;-71
2023/11/07 11:49:08;;;;;;;9.80;3.78;;;;;;;15.76;71.23;99563.38;5073507;28;20044;-70
2023/11/07 11:51:39;;;;;;;1.23;1.13;;;;;;;15.95;70.83;99560.34;5071176;28;20114;-72
2023/11/07 11:54:10;;;;;;;1.00;1.00;;;;;;;16.18;70.43;99551.16;5075344;28;20047;-72
2023/11/07 11:57:04;;;;;;;5.00;2.13;;;;;;;16.42;69.48;99560.84;5076280;28;20059;-73
2023/11/07 11:59:54;;;;;;;1.40;0.98;;;;;;;16.27;67.93;99553.53;5074172;28;20110;-74
2023/11/07 12:02:36;;;;;;;0.85;0.65;;;;;;;16.00;67.89;99566.19;5075614;28;20043;-71